Time;durP1;ratioP1;P1;durP2;ratioP2;P2;SDS_P1;SDS_P2;PMS_P1;PMS_P2;Temp;Humidity;BMP_temperature;BMP_pressure;BME280_temperature;BME280_humidity;BME280_pressure;Samples;Min_cycle;Max_cycle;Signal;HPM_P1;HPM_P2
2022/10/24 08:19:35;;;;;;;7.95;7.25;;;12.20;99.90;;;;;;5111080;27;20549;-73
2022/10/24 08:22:01;;;;;;;9.80;6.38;;;12.70;99.90;;;;;;5092571;28;20230;-73
2022/10/24 08:24:27;;;;;;;5.00;4.57;;;12.80;99.90;;;;;;5092809;28;20187;-73
2022/10/24 08:26:55;;;;;;;6.72;5.00;;;12.90;99.90;;;;;;5093723;28;20204;-73
2022/10/24 08:29:22;;;;;;;11.02;4.70;;;13.00;99.90;;;;;;5112592;28;20171;-73
2022/10/24 08:31:53;;;;;;;7.50;4.50;;;13.00;99.90;;;;;;5090853;28;20556;-72
2022/10/24 08:34:19;;;;;;;14.95;11.90;;;13.10;99.90;;;;;;5075886;28;20181;-73
2022/10/24 08:36:48;;;;;;;9.93;8.05;;;13.20;99.90;;;;;;5074306;28;20189;-73
2022/10/24 08:39:14;;;;;;;12.18;9.45;;;13.30;99.90;;;;;;5073542;28;20208;-72
2022/10/24 08:41:45;;;;;;;12.55;11.00;;;13.40;99.90;;;;;;5092638;28;20256;-73
2022/10/24 08:44:24;;;;;;;9.65;8.75;;;13.50;99.90;;;;;;5095944;28;20631;-73
2022/10/24 08:47:12;;;;;;;10.02;8.00;;;13.60;99.90;;;;;;5081752;28;20189;-73
2022/10/24 08:49:46;;;;;;;7.88;6.43;;;13.70;99.90;;;;;;5101131;28;20173;-73
2022/10/24 08:52:34;;;;;;;7.60;6.90;;;13.80;99.90;;;;;;5108941;28;20203;-72
2022/10/24 08:55:24;;;;;;;8.43;7.63;;;13.90;99.90;;;;;;5093885;28;20183;-73
2022/10/24 08:57:58;;;;;;;8.10;6.43;;;14.00;99.90;;;;;;5092767;28;20216;-73
2022/10/24 09:00:30;;;;;;;10.40;7.78;;;14.00;99.90;;;;;;5092677;28;20172;-73
2022/10/24 09:03:17;;;;;;;13.57;6.97;;;14.10;99.90;;;;;;5092527;28;20175;-72
2022/10/24 09:05:55;;;;;;;8.02;6.40;;;14.10;99.90;;;;;;5092379;28;20542;-73
2022/10/24 09:08:45;;;;;;;10.52;5.88;;;14.10;99.90;;;;;;5092247;28;20225;-72
2022/10/24 09:11:19;;;;;;;7.68;5.40;;;14.20;99.90;;;;;;5094231;28;20178;-73
2022/10/24 09:13:45;;;;;;;8.60;6.95;;;14.30;99.90;;;;;;5094175;28;20167;-73
2022/10/24 09:16:19;;;;;;;8.80;5.35;;;14.20;99.90;;;;;;5093147;28;20176;-72
2022/10/24 09:18:47;;;;;;;9.63;5.40;;;14.40;99.90;;;;;;5110550;28;20257;-73
2022/10/24 09:21:14;;;;;;;12.63;4.50;;;14.40;99.90;;;;;;5086447;28;20318;-73
2022/10/24 09:23:41;;;;;;;9.77;4.50;;;14.50;99.90;;;;;;5092178;28;20183;-73
2022/10/24 09:26:39;;;;;;;8.23;4.32;;;14.50;99.90;;;;;;5110835;28;20278;-73
2022/10/24 09:29:04;;;;;;;6.55;4.15;;;14.40;99.90;;;;;;5104996;28;20267;-73
2022/10/24 09:31:30;;;;;;;7.03;4.65;;;14.40;99.90;;;;;;5078653;28;20188;-73
2022/10/24 09:33:59;;;;;;;7.30;4.25;;;14.40;99.90;;;;;;5079363;28;20183;-72
2022/10/24 09:36:29;;;;;;;6.22;4.05;;;14.30;99.90;;;;;;5078776;28;20187;-73
2022/10/24 09:38:54;;;;;;;10.75;4.30;;;14.20;99.90;;;;;;5078611;28;20196;-72
2022/10/24 09:41:32;;;;;;;5.50;3.63;;;14.20;99.90;;;;;;5078441;28;20176;-72
2022/10/24 09:43:59;;;;;;;8.30;3.92;;;14.10;99.90;;;;;;5078792;28;20172;-74
2022/10/24 09:46:46;;;;;;;5.97;3.78;;;14.10;99.90;;;;;;5080437;28;20177;-73
2022/10/24 09:49:13;;;;;;;7.65;3.70;;;14.10;99.90;;;;;;5097268;28;20248;-74
2022/10/24 09:51:46;;;;;;;7.55;4.07;;;14.10;99.90;;;;;;5078824;28;20187;-72
2022/10/24 09:54:18;;;;;;;6.53;3.70;;;14.10;99.90;;;;;;5077983;28;20166;-72
2022/10/24 09:56:53;;;;;;;3.90;3.35;;;14.10;99.90;;;;;;5095935;28;20239;-73
2022/10/24 09:59:57;;;;;;;6.40;3.50;;;14.20;99.90;;;;;;5096151;28;20188;-74
2022/10/24 10:02:28;;;;;;;5.25;3.63;;;14.30;99.90;;;;;;5078892;28;20168;-73
2022/10/24 10:05:02;;;;;;;8.68;4.05;;;14.30;99.90;;;;;;5095850;28;20169;-72
2022/10/24 10:07:39;;;;;;;8.82;3.92;;;14.40;99.90;;;;;;5077664;28;20188;-73
2022/10/24 10:10:24;;;;;;;6.30;4.00;;;14.40;99.90;;;;;;5078435;28;20211;-73
2022/10/24 10:13:14;;;;;;;8.45;4.28;;;14.40;99.90;;;;;;5077862;28;20657;-73
2022/10/24 10:15:42;;;;;;;7.05;3.85;;;14.40;99.90;;;;;;5094543;28;20195;-72
2022/10/24 10:18:32;;;;;;;8.40;4.82;;;14.50;99.90;;;;;;5057451;28;20296;-73
2022/10/24 10:21:32;;;;;;;6.60;4.55;;;14.60;99.90;;;;;;5058205;28;20188;-72
2022/10/24 10:24:00;;;;;;;10.88;3.60;;;14.80;99.90;;;;;;5076553;28;20208;-73
2022/10/24 10:26:28;;;;;;;6.95;3.45;;;14.90;99.90;;;;;;5075764;28;20182;-73
2022/10/24 10:28:58;;;;;;;11.52;3.65;;;15.00;99.90;;;;;;5057532;28;20181;-73
2022/10/24 10:31:39;;;;;;;8.45;3.08;;;15.20;99.90;;;;;;5057920;28;20224;-72
2022/10/24 10:34:24;;;;;;;8.95;3.70;;;15.20;99.90;;;;;;5075315;28;20180;-72
2022/10/24 10:37:04;;;;;;;8.70;3.70;;;15.20;99.90;;;;;;5058264;28;20193;-74
2022/10/24 10:39:45;;;;;;;8.57;4.28;;;15.20;99.90;;;;;;5075247;28;20204;-73
2022/10/24 10:42:23;;;;;;;10.23;4.00;;;15.20;99.90;;;;;;5056553;28;20169;-73
2022/10/24 10:45:04;;;;;;;9.93;3.92;;;15.20;99.90;;;;;;5074773;28;20168;-73
2022/10/24 10:47:36;;;;;;;8.07;3.20;;;15.10;99.90;;;;;;5093436;28;20245;-72
2022/10/24 10:50:26;;;;;;;14.10;3.58;;;15.20;99.90;;;;;;5077395;28;20243;-73
2022/10/24 10:52:59;;;;;;;8.18;3.05;;;15.10;99.90;;;;;;5077661;28;20179;-73
2022/10/24 10:55:38;;;;;;;7.45;3.20;;;15.10;99.90;;;;;;5096012;28;20169;-72
2022/10/24 10:58:44;;;;;;;9.40;3.20;;;15.10;99.90;;;;;;5095031;28;20299;-73
2022/10/24 11:01:18;;;;;;;6.10;2.95;;;15.20;99.90;;;;;;5077392;28;20161;-72
2022/10/24 11:03:55;;;;;;;9.00;3.00;;;15.20;99.90;;;;;;5077467;28;20172;-73
2022/10/24 11:06:48;;;;;;;6.95;2.65;;;15.30;99.90;;;;;;5077733;28;20264;-73
2022/10/24 11:10:10;;;;;;;7.22;2.67;;;15.30;99.90;;;;;;5076426;28;20176;-73
2022/10/24 11:12:39;;;;;;;6.07;2.60;;;15.40;99.90;;;;;;5077009;28;20264;-73
2022/10/24 11:15:26;;;;;;;10.15;3.35;;;15.50;99.90;;;;;;5094602;28;20180;-73
2022/10/24 11:18:03;;;;;;;8.75;3.90;;;15.50;99.90;;;;;;5076486;28;20258;-73
2022/10/24 11:20:38;;;;;;;15.32;12.05;;;15.50;99.90;;;;;;5076755;28;20238;-72
2022/10/24 11:23:13;;;;;;;11.18;5.75;;;15.50;99.90;;;;;;5077152;28;20237;-73
2022/10/24 11:25:44;;;;;;;6.07;4.82;;;15.50;99.90;;;;;;5076940;28;20617;-73
2022/10/24 11:28:16;;;;;;;6.05;3.25;;;15.50;99.90;;;;;;5094638;28;20221;-73
2022/10/24 11:30:50;;;;;;;8.20;3.03;;;15.50;99.90;;;;;;5077340;28;20227;-72
2022/10/24 11:33:24;;;;;;;8.23;3.20;;;15.40;99.90;;;;;;5076824;28;20196;-73
2022/10/24 11:36:12;;;;;;;8.70;3.45;;;15.40;99.90;;;;;;5076937;28;20215;-72
2022/10/24 11:38:50;;;;;;;6.85;3.00;;;15.30;99.90;;;;;;5076584;28;20218;-73
2022/10/24 11:41:28;;;;;;;7.35;2.95;;;15.30;99.90;;;;;;5075961;28;20165;-73
2022/10/24 11:47:25;;;;;;;6.55;2.60;;;15.30;99.90;;;;;;5093849;28;20196;-73
2022/10/24 11:50:09;;;;;;;6.72;3.08;;;15.30;99.90;;;;;;5093646;28;20160;-73
2022/10/24 11:52:42;;;;;;;10.77;3.63;;;15.30;99.90;;;;;;5094262;28;20172;-73
2022/10/24 11:55:37;;;;;;;8.13;2.80;;;15.40;99.90;;;;;;5075972;28;20168;-73
2022/10/24 11:58:07;;;;;;;7.20;3.13;;;15.40;99.90;;;;;;5092297;28;20240;-72
2022/10/24 12:00:50;;;;;;;9.00;3.55;;;15.50;99.90;;;;;;5094040;28;20161;-73
2022/10/24 12:04:12;;;;;;;11.23;4.38;;;15.60;99.90;;;;;;5076365;28;20170;-73
2022/10/24 12:07:06;;;;;;;8.43;3.30;;;15.70;99.90;;;;;;5076158;28;20278;-73
2022/10/24 12:09:51;;;;;;;9.43;3.65;;;15.70;99.90;;;;;;5076389;28;20507;-72
2022/10/24 12:12:54;;;;;;;5.60;2.90;;;15.70;99.90;;;;;;5093571;28;20172;-72
2022/10/24 12:15:46;;;;;;;11.13;6.75;;;15.80;99.90;;;;;;5093467;28;20161;-72
2022/10/24 12:21:38;;;;;;;8.43;2.92;;;15.80;99.90;;;;;;5093987;28;20250;-73
2022/10/24 12:24:17;;;;;;;5.30;2.67;;;15.80;99.90;;;;;;5075793;28;20527;-72
2022/10/24 12:26:53;;;;;;;9.95;3.15;;;15.80;99.90;;;;;;5075821;28;20206;-72
2022/10/24 12:29:25;;;;;;;8.18;2.95;;;15.90;99.90;;;;;;5093457;28;20157;-73
2022/10/24 12:31:51;;;;;;;8.95;3.05;;;15.90;99.90;;;;;;5076045;28;20173;-73
2022/10/24 12:34:23;;;;;;;8.57;3.40;;;16.00;99.90;;;;;;5094490;28;20222;-72
2022/10/24 12:37:28;;;;;;;10.43;3.20;;;16.10;99.90;;;;;;5093824;28;20181;-72
2022/10/24 12:39:54;;;;;;;7.85;3.20;;;16.10;99.90;;;;;;5076434;28;20173;-73
2022/10/24 12:42:23;;;;;;;5.78;2.85;;;16.10;99.90;;;;;;5075660;28;20226;-73
2022/10/24 12:45:29;;;;;;;8.63;2.88;;;16.10;99.90;;;;;;5075922;28;20208;-73
2022/10/24 12:47:54;;;;;;;6.45;3.08;;;16.20;99.90;;;;;;5075716;28;20201;-73
2022/10/24 12:50:20;;;;;;;8.40;3.80;;;16.10;99.90;;;;;;5075726;28;20264;-73
2022/10/24 12:52:46;;;;;;;9.85;3.00;;;16.20;99.90;;;;;;5075628;28;20180;-72
2022/10/24 12:55:30;;;;;;;10.23;3.20;;;16.20;99.90;;;;;;5075220;28;20609;-72
2022/10/24 12:57:57;;;;;;;9.43;2.95;;;16.20;99.90;;;;;;5075049;28;20226;-72
2022/10/24 13:00:32;;;;;;;11.77;3.50;;;16.20;99.90;;;;;;5075764;28;20640;-73
2022/10/24 13:03:20;;;;;;;6.53;2.95;;;16.20;99.90;;;;;;5076121;28;20222;-73
2022/10/24 13:06:15;;;;;;;9.07;3.30;;;16.10;99.90;;;;;;5078074;28;20171;-73
2022/10/24 13:09:05;;;;;;;9.18;3.50;;;16.10;99.90;;;;;;5079670;28;20256;-73
2022/10/24 13:12:01;;;;;;;8.18;3.00;;;16.00;99.90;;;;;;5096681;28;20161;-73
2022/10/24 13:14:45;;;;;;;6.28;2.90;;;16.00;99.90;;;;;;5097105;28;20237;-73
2022/10/24 13:17:42;;;;;;;11.75;3.55;;;15.90;99.90;;;;;;5078503;28;20242;-73
2022/10/24 13:20:25;;;;;;;9.88;3.17;;;15.90;99.90;;;;;;5079691;28;20177;-73
2022/10/24 13:23:00;;;;;;;8.57;3.05;;;15.90;99.90;;;;;;5096661;28;20271;-73
2022/10/24 13:25:33;;;;;;;6.97;3.05;;;16.00;99.90;;;;;;5078813;28;20164;-73
2022/10/24 13:28:21;;;;;;;11.40;3.20;;;16.00;99.90;;;;;;5078752;28;20197;-73
2022/10/24 13:30:59;;;;;;;6.38;2.60;;;16.00;99.90;;;;;;5078325;28;20196;-73
2022/10/24 13:33:31;;;;;;;5.25;2.92;;;16.00;99.90;;;;;;5078306;28;20197;-73
2022/10/24 13:36:25;;;;;;;8.90;3.10;;;16.00;99.90;;;;;;5079002;28;20271;-73
2022/10/24 13:39:02;;;;;;;8.25;3.05;;;16.00;99.90;;;;;;5079351;28;20197;-73
2022/10/24 13:41:42;;;;;;;8.38;3.00;;;16.10;99.90;;;;;;5079275;28;20203;-73
2022/10/24 13:44:10;;;;;;;10.35;3.10;;;16.20;99.90;;;;;;5078740;28;20690;-73
2022/10/24 13:50:01;;;;;;;7.45;2.92;;;16.30;99.90;;;;;;5096267;28;20230;-74
2022/10/24 13:52:53;;;;;;;8.80;3.28;;;16.30;99.90;;;;;;5077996;28;20639;-72
2022/10/24 13:55:46;;;;;;;8.38;2.83;;;16.40;99.90;;;;;;5096958;28;20161;-73
2022/10/24 13:58:18;;;;;;;6.50;2.80;;;16.40;99.90;;;;;;5078256;28;20212;-73
2022/10/24 14:00:54;;;;;;;6.03;2.92;;;16.30;99.90;;;;;;5078892;28;20165;-73
2022/10/24 14:03:22;;;;;;;17.33;3.35;;;16.40;99.90;;;;;;5078594;28;20200;-74
2022/10/24 14:06:02;;;;;;;13.80;3.20;;;16.40;99.90;;;;;;5077924;28;20181;-73
2022/10/24 14:08:33;;;;;;;9.32;3.22;;;16.40;99.90;;;;;;5077969;28;20212;-73
2022/10/24 14:11:04;;;;;;;10.57;3.47;;;16.40;99.90;;;;;;5078400;28;20184;-73
2022/10/24 14:13:32;;;;;;;7.25;2.80;;;16.40;99.90;;;;;;5077778;28;20184;-72
2022/10/24 14:16:01;;;;;;;6.57;2.95;;;16.30;99.90;;;;;;5078115;28;20205;-72
2022/10/24 14:18:27;;;;;;;13.77;2.97;;;16.20;99.90;;;;;;5077687;28;20247;-73
2022/10/24 14:20:56;;;;;;;6.57;3.00;;;16.10;99.90;;;;;;5078104;28;20185;-73
2022/10/24 14:23:29;;;;;;;6.22;2.72;;;16.10;99.90;;;;;;5077680;28;20188;-73
2022/10/24 14:26:06;;;;;;;9.43;3.28;;;16.00;99.90;;;;;;5077851;28;20169;-73
2022/10/24 14:28:44;;;;;;;8.00;3.40;;;15.90;99.90;;;;;;5095941;28;20184;-73
2022/10/24 14:31:24;;;;;;;8.45;3.10;;;15.90;99.90;;;;;;5077402;28;20172;-79
2022/10/24 14:33:52;;;;;;;9.95;3.63;;;15.80;99.90;;;;;;5077547;28;20173;-74
2022/10/24 14:36:21;;;;;;;4.75;2.97;;;15.80;99.90;;;;;;5078273;28;20192;-78
2022/10/24 14:38:49;;;;;;;8.20;3.25;;;15.80;99.90;;;;;;5077084;28;20214;-73
2022/10/24 14:41:17;;;;;;;9.02;3.10;;;15.80;99.90;;;;;;5077393;28;20255;-73
2022/10/24 14:43:44;;;;;;;10.90;3.42;;;15.80;99.90;;;;;;5095054;28;20173;-73
2022/10/24 14:46:38;;;;;;;9.65;3.10;;;15.80;99.90;;;;;;5095654;28;20227;-73
2022/10/24 14:49:19;;;;;;;10.85;3.38;;;15.70;99.90;;;;;;5095422;28;20188;-73
2022/10/24 14:51:46;;;;;;;11.70;4.13;;;15.70;99.90;;;;;;5073741;28;20177;-73
2022/10/24 14:54:28;;;;;;;13.50;3.33;;;15.60;99.90;;;;;;5077081;28;20184;-74
2022/10/24 14:56:54;;;;;;;10.18;3.33;;;15.60;99.90;;;;;;5076676;28;20200;-76
2022/10/24 14:59:44;;;;;;;8.00;3.20;;;15.50;99.90;;;;;;5094686;28;20667;-76
2022/10/24 15:02:34;;;;;;;12.82;3.80;;;15.50;99.90;;;;;;5094970;28;20753;-75
2022/10/24 15:05:13;;;;;;;9.52;4.22;;;15.50;99.90;;;;;;5077341;28;20234;-74
2022/10/24 15:07:40;;;;;;;9.93;3.67;;;15.40;99.90;;;;;;5094319;28;20201;-73
2022/10/24 15:10:11;;;;;;;10.73;4.80;;;15.30;99.90;;;;;;5076316;28;20177;-74
2022/10/24 15:13:26;;;;;;;19.00;5.80;;;15.30;99.90;;;;;;5076704;28;20538;-73
2022/10/24 15:16:03;;;;;;;9.32;4.30;;;15.20;99.90;;;;;;5076738;28;20180;-73
2022/10/24 15:22:01;;;;;;;10.82;4.10;;;15.10;99.90;;;;;;5094482;28;20627;-74
2022/10/24 15:24:26;;;;;;;8.30;3.55;;;15.00;99.90;;;;;;5076696;28;20208;-74
2022/10/24 15:27:08;;;;;;;6.35;3.85;;;15.00;99.90;;;;;;5075771;28;20205;-73
2022/10/24 15:29:34;;;;;;;7.70;3.70;;;14.90;99.90;;;;;;5094605;28;20153;-74
2022/10/24 15:32:00;;;;;;;11.13;4.25;;;14.90;99.90;;;;;;5076428;28;20169;-73
2022/10/24 15:34:33;;;;;;;10.95;3.65;;;14.90;99.90;;;;;;5076061;28;20173;-74
2022/10/24 15:36:59;;;;;;;10.45;4.18;;;14.80;99.90;;;;;;5077113;28;20204;-79
2022/10/24 15:39:25;;;;;;;7.05;3.25;;;14.80;99.90;;;;;;5075928;28;20204;-74
2022/10/24 15:41:51;;;;;;;11.40;4.15;;;14.70;99.90;;;;;;5076169;28;20173;-74
2022/10/24 15:44:35;;;;;;;5.85;3.75;;;14.70;99.90;;;;;;5076657;28;20172;-75
2022/10/24 15:50:23;;;;;;;16.58;4.28;;;14.70;99.90;;;;;;5094545;28;20210;-74
2022/10/24 15:52:55;;;;;;;5.45;3.42;;;14.60;99.90;;;;;;5094093;28;20181;-74
2022/10/24 15:55:28;;;;;;;10.50;4.05;;;14.60;99.90;;;;;;5076600;28;20263;-74
2022/10/24 15:57:56;;;;;;;8.18;4.22;;;14.60;99.90;;;;;;5076080;28;20563;-73
2022/10/24 16:00:22;;;;;;;8.23;4.00;;;14.60;99.90;;;;;;5075715;28;20196;-73
2022/10/24 16:06:09;;;;;;;6.60;3.63;;;14.50;99.90;;;;;;5093896;28;20675;-73
2022/10/24 16:11:46;;;;;;;14.65;4.28;;;14.40;99.90;;;;;;5094175;28;20165;-75
2022/10/24 16:14:14;;;;;;;11.10;3.63;;;14.30;99.90;;;;;;5093754;28;20184;-75
2022/10/24 16:16:40;;;;;;;7.25;3.67;;;14.30;99.90;;;;;;5075354;28;20201;-74
2022/10/24 16:19:05;;;;;;;11.02;3.90;;;14.30;99.90;;;;;;5093475;28;20199;-75
2022/10/24 16:22:09;;;;;;;12.60;4.00;;;14.20;99.90;;;;;;5093846;28;20164;-73
2022/10/24 16:24:35;;;;;;;10.80;3.97;;;14.10;99.90;;;;;;5076480;28;20192;-76
2022/10/24 16:27:00;;;;;;;11.15;3.72;;;14.10;99.90;;;;;;5093445;28;20550;-76
2022/10/24 16:29:26;;;;;;;9.25;3.97;;;14.00;99.90;;;;;;5075478;28;20594;-75
2022/10/24 16:31:59;;;;;;;11.38;4.18;;;14.00;99.90;;;;;;5076147;28;20181;-75
2022/10/24 16:34:24;;;;;;;10.80;4.03;;;14.00;99.90;;;;;;5093806;28;20169;-75
2022/10/24 16:36:54;;;;;;;9.90;4.00;;;14.00;99.90;;;;;;5075514;28;20211;-73
2022/10/24 16:39:19;;;;;;;12.20;3.92;;;13.90;99.90;;;;;;5075691;28;20226;-73
2022/10/24 16:41:45;;;;;;;10.93;4.22;;;13.90;99.90;;;;;;5097477;28;20173;-73
2022/10/24 16:44:12;;;;;;;8.75;4.15;;;13.90;99.90;;;;;;5097794;28;20193;-74
2022/10/24 16:47:09;;;;;;;17.92;12.93;;;13.90;99.90;;;;;;5097865;28;20192;-75
2022/10/24 16:49:35;;;;;;;15.02;11.30;;;13.90;99.90;;;;;;5079311;28;20173;-72
2022/10/24 16:52:01;;;;;;;14.15;8.02;;;13.90;99.90;;;;;;5081381;28;20263;-74
2022/10/24 16:54:27;;;;;;;15.30;9.20;;;13.90;99.90;;;;;;5080386;28;20179;-75
2022/10/24 16:57:22;;;;;;;9.48;5.13;;;13.90;99.90;;;;;;5079928;28;20192;-75
2022/10/24 16:59:48;;;;;;;9.75;5.05;;;13.90;99.90;;;;;;5080742;28;20262;-74
2022/10/24 17:02:15;;;;;;;15.23;5.28;;;13.80;99.90;;;;;;5080509;28;20173;-74
2022/10/24 17:04:43;;;;;;;7.70;3.70;;;13.80;99.90;;;;;;5079449;28;20196;-77
2022/10/24 17:07:10;;;;;;;9.13;4.47;;;13.80;99.90;;;;;;5078728;28;20211;-77
2022/10/24 17:09:36;;;;;;;9.57;3.80;;;13.90;99.90;;;;;;5097306;28;20198;-74
2022/10/24 17:12:02;;;;;;;7.72;4.15;;;13.90;99.90;;;;;;5079099;28;20211;-73
2022/10/24 17:14:28;;;;;;;9.07;4.28;;;13.90;99.90;;;;;;5096913;28;20212;-74
2022/10/24 17:16:54;;;;;;;9.43;4.30;;;13.90;99.90;;;;;;5096613;28;20189;-74
2022/10/24 17:19:20;;;;;;;11.85;5.57;;;13.90;99.90;;;;;;5097284;28;20676;-74
2022/10/24 17:21:48;;;;;;;11.38;5.30;;;13.80;99.90;;;;;;5078845;28;20215;-74
2022/10/24 17:24:16;;;;;;;8.38;5.20;;;13.70;99.90;;;;;;5079277;28;20193;-74
2022/10/24 17:26:42;;;;;;;14.93;6.22;;;13.70;99.90;;;;;;5078375;28;20189;-75
2022/10/24 17:29:12;;;;;;;13.27;6.75;;;13.70;99.90;;;;;;5096505;28;20246;-75
2022/10/24 17:31:37;;;;;;;19.80;12.15;;;13.70;99.90;;;;;;5078687;28;20184;-76
2022/10/24 17:34:03;;;;;;;18.13;9.10;;;13.60;99.90;;;;;;5078308;28;20173;-76
2022/10/24 17:36:35;;;;;;;44.63;27.05;;;13.60;99.90;;;;;;5078230;28;20648;-75
2022/10/24 17:42:23;;;;;;;33.80;30.40;;;13.60;99.90;;;;;;5096516;28;20207;-75
2022/10/24 17:44:49;;;;;;;25.77;23.05;;;13.60;99.90;;;;;;5078300;28;20227;-75
2022/10/24 17:50:36;;;;;;;11.23;6.70;;;13.70;99.90;;;;;;5096215;28;20164;-75
2022/10/24 17:53:02;;;;;;;12.57;9.43;;;13.70;99.90;;;;;;5077968;28;20180;-75
2022/10/24 17:55:28;;;;;;;25.08;15.80;;;13.70;99.90;;;;;;5096623;28;20653;-76
2022/10/24 17:57:53;;;;;;;19.17;12.65;;;13.70;99.90;;;;;;5095972;28;20203;-75
2022/10/24 18:00:19;;;;;;;18.80;9.40;;;13.70;99.90;;;;;;5077878;28;20272;-76
2022/10/24 18:02:49;;;;;;;18.20;9.43;;;13.70;99.90;;;;;;5096164;28;20181;-75
2022/10/24 18:05:16;;;;;;;19.15;9.00;;;13.70;99.90;;;;;;5079024;28;20307;-74
2022/10/24 18:07:42;;;;;;;17.67;8.95;;;13.80;99.90;;;;;;5078370;28;20193;-75
2022/10/24 18:10:09;;;;;;;17.88;7.32;;;13.80;99.90;;;;;;5096317;28;20173;-75
2022/10/24 18:12:37;;;;;;;14.43;7.45;;;13.80;99.90;;;;;;5095714;28;20655;-75
2022/10/24 18:18:12;;;;;;;11.23;6.85;;;13.70;99.90;;;;;;5095998;28;20208;-75
2022/10/24 18:20:37;;;;;;;10.80;5.68;;;13.60;99.90;;;;;;5078329;28;20356;-75
2022/10/24 18:23:03;;;;;;;12.35;6.18;;;13.60;99.90;;;;;;5077856;28;20216;-75
2022/10/24 18:25:28;;;;;;;12.60;6.57;;;13.50;99.90;;;;;;5077774;28;20197;-75
2022/10/24 18:27:55;;;;;;;14.35;6.30;;;13.50;99.90;;;;;;5078163;28;20197;-75
2022/10/24 18:30:21;;;;;;;15.18;7.65;;;13.40;99.90;;;;;;5095361;28;20177;-77
2022/10/24 18:36:14;;;;;;;21.73;11.10;;;13.40;99.90;;;;;;5095588;28;20159;-73
2022/10/24 18:38:40;;;;;;;14.40;8.20;;;13.30;99.90;;;;;;5077421;28;20196;-75
2022/10/24 18:41:37;;;;;;;22.73;12.00;;;13.30;99.90;;;;;;5078183;28;20172;-75
2022/10/24 18:44:22;;;;;;;22.38;10.05;;;13.30;99.90;;;;;;5077347;28;20169;-75
2022/10/24 18:50:15;;;;;;;31.48;15.57;;;13.20;99.90;;;;;;5095118;28;20156;-74
2022/10/24 18:52:51;;;;;;;25.17;12.43;;;13.10;99.90;;;;;;5076794;28;20200;-76
2022/10/24 18:55:32;;;;;;;23.40;10.25;;;13.10;99.90;;;;;;5076874;28;20165;-76
2022/10/24 18:57:58;;;;;;;39.88;19.20;;;13.10;99.90;;;;;;5076788;28;20204;-76
2022/10/24 19:00:26;;;;;;;56.47;28.80;;;13.00;99.90;;;;;;5077758;28;20177;-77
2022/10/24 19:02:55;;;;;;;54.08;28.65;;;13.00;99.90;;;;;;5076628;28;20200;-77
2022/10/24 19:06:02;;;;;;;32.22;17.00;;;13.00;99.90;;;;;;5094818;28;20754;-77
2022/10/24 19:08:46;;;;;;;42.30;25.85;;;12.90;99.90;;;;;;5076496;28;20291;-75
2022/10/24 19:11:29;;;;;;;58.03;32.58;;;12.90;99.90;;;;;;5077281;28;20161;-76
2022/10/24 19:14:13;;;;;;;57.30;31.08;;;12.80;99.90;;;;;;5077156;28;20200;-75
2022/10/24 19:23:16;;;;;;;38.22;24.88;;;12.70;99.90;;;;;;5094680;28;20199;-73
2022/10/24 19:29:03;;;;;;;12.52;7.10;;;12.70;99.90;;;;;;5094799;28;20164;-73
2022/10/24 19:34:52;;;;;;;15.65;7.10;;;12.70;99.90;;;;;;5094232;28;20214;-73
2022/10/24 19:37:18;;;;;;;13.30;6.22;;;12.70;99.90;;;;;;5076162;28;20605;-75
2022/10/24 19:43:05;;;;;;;12.88;5.90;;;12.60;99.90;;;;;;5094597;28;20198;-75
2022/10/24 19:45:31;;;;;;;15.73;6.15;;;12.60;99.90;;;;;;5075969;28;20173;-73
2022/10/24 19:48:21;;;;;;;12.45;5.82;;;12.60;99.90;;;;;;5076199;28;20279;-73
2022/10/24 19:50:46;;;;;;;10.18;5.80;;;12.60;99.90;;;;;;5075972;28;20169;-73
2022/10/24 19:53:14;;;;;;;15.73;5.53;;;12.60;99.90;;;;;;5094129;28;20628;-73
2022/10/24 19:55:40;;;;;;;10.90;5.95;;;12.60;99.90;;;;;;5075778;28;20191;-73
2022/10/24 19:58:11;;;;;;;14.88;5.93;;;12.60;99.90;;;;;;5075969;28;20295;-73
2022/10/24 20:00:37;;;;;;;13.30;5.70;;;12.60;99.90;;;;;;5075690;28;20169;-73
2022/10/24 20:03:22;;;;;;;14.52;6.28;;;12.60;99.90;;;;;;5075688;28;20169;-73
2022/10/24 20:05:48;;;;;;;14.35;6.25;;;12.60;99.90;;;;;;5075747;28;20165;-73
2022/10/24 20:08:13;;;;;;;12.40;6.10;;;12.60;99.90;;;;;;5075869;28;20200;-75
2022/10/24 20:10:39;;;;;;;13.45;6.43;;;12.60;99.90;;;;;;5075839;28;20184;-75
2022/10/24 20:13:04;;;;;;;14.65;6.40;;;12.60;99.90;;;;;;5075457;28;20195;-75
2022/10/24 20:15:30;;;;;;;12.05;5.97;;;12.60;99.90;;;;;;5076352;28;20561;-75
2022/10/24 20:18:21;;;;;;;10.52;5.45;;;12.70;99.90;;;;;;5075626;28;20205;-74
2022/10/24 20:20:47;;;;;;;13.45;5.85;;;12.70;99.90;;;;;;5075456;28;20266;-74
2022/10/24 20:23:13;;;;;;;11.68;5.65;;;12.70;99.90;;;;;;5075526;28;20232;-74
2022/10/24 20:25:39;;;;;;;10.13;5.65;;;12.70;99.90;;;;;;5075444;28;20183;-74
2022/10/24 20:28:15;;;;;;;11.63;5.70;;;12.70;99.90;;;;;;5075413;28;20231;-74
2022/10/24 20:30:44;;;;;;;14.13;6.10;;;12.70;99.90;;;;;;5075425;28;20211;-74
2022/10/24 20:33:10;;;;;;;9.52;5.28;;;12.70;99.90;;;;;;5076633;28;20203;-74
2022/10/24 20:35:36;;;;;;;13.52;5.63;;;12.70;99.90;;;;;;5075960;28;20177;-74
2022/10/24 20:38:01;;;;;;;12.32;5.70;;;12.70;99.90;;;;;;5075399;28;20226;-74
2022/10/24 20:40:28;;;;;;;10.27;5.55;;;12.70;99.90;;;;;;5076231;28;20177;-74
2022/10/24 20:42:54;;;;;;;11.75;5.85;;;12.60;99.90;;;;;;5093993;28;20662;-74
2022/10/24 20:45:20;;;;;;;9.40;6.00;;;12.60;99.90;;;;;;5076142;28;20177;-74
2022/10/24 20:47:45;;;;;;;10.38;5.75;;;12.50;99.90;;;;;;5075412;28;20744;-74
2022/10/24 20:50:11;;;;;;;13.98;5.90;;;12.40;99.90;;;;;;5075577;28;20173;-75
2022/10/24 20:52:37;;;;;;;8.48;5.65;;;12.40;99.90;;;;;;5075197;28;20181;-74
2022/10/24 20:55:03;;;;;;;10.10;5.50;;;12.40;99.90;;;;;;5075458;28;20204;-74
2022/10/24 20:57:28;;;;;;;12.90;5.05;;;12.30;99.90;;;;;;5075065;28;20207;-74
2022/10/24 20:59:54;;;;;;;10.95;5.30;;;12.40;99.90;;;;;;5093372;28;20205;-74
2022/10/24 21:02:19;;;;;;;6.28;5.03;;;12.40;99.90;;;;;;5075117;28;20181;-75
2022/10/24 21:04:45;;;;;;;13.73;5.88;;;12.30;99.90;;;;;;5075016;28;20169;-75
2022/10/24 21:07:11;;;;;;;11.40;5.60;;;12.30;99.90;;;;;;5075029;28;20200;-75
2022/10/24 21:09:37;;;;;;;10.20;5.13;;;12.20;99.90;;;;;;5075469;28;20209;-75
2022/10/24 21:12:03;;;;;;;10.38;5.82;;;12.20;99.90;;;;;;5076001;28;20267;-75
2022/10/24 21:14:28;;;;;;;10.57;5.60;;;12.20;99.90;;;;;;5075204;28;20675;-74
2022/10/24 21:17:00;;;;;;;11.18;5.40;;;12.20;99.90;;;;;;5092893;28;20197;-74
2022/10/24 21:19:26;;;;;;;13.35;6.13;;;12.10;99.90;;;;;;5074885;28;20296;-74
2022/10/24 21:21:51;;;;;;;12.90;5.70;;;12.00;99.90;;;;;;5074916;28;20192;-75
2022/10/24 21:24:17;;;;;;;11.57;5.65;;;11.90;99.90;;;;;;5074996;28;20180;-75
2022/10/24 21:26:43;;;;;;;14.65;6.65;;;11.90;99.90;;;;;;5077961;28;20216;-75
2022/10/24 21:29:09;;;;;;;8.55;5.35;;;11.80;99.90;;;;;;5079192;28;20666;-75
2022/10/24 21:31:35;;;;;;;11.60;6.13;;;11.80;99.90;;;;;;5078459;28;20574;-75
2022/10/24 21:34:01;;;;;;;10.85;6.43;;;11.70;99.90;;;;;;5078352;28;20181;-75
2022/10/24 21:36:27;;;;;;;11.43;6.63;;;11.70;99.90;;;;;;5078130;28;20179;-75
2022/10/24 21:38:58;;;;;;;10.02;7.15;;;11.80;99.90;;;;;;5078190;28;20201;-74
2022/10/24 21:41:25;;;;;;;12.05;7.10;;;11.80;99.90;;;;;;5096429;28;20157;-74
2022/10/24 21:43:52;;;;;;;18.05;6.88;;;11.90;99.90;;;;;;5096218;28;20187;-74
2022/10/24 21:46:22;;;;;;;13.30;7.45;;;11.90;99.90;;;;;;5078384;28;20177;-74
2022/10/24 21:48:49;;;;;;;13.57;7.15;;;12.00;99.90;;;;;;5096295;28;20628;-74
2022/10/24 21:51:24;;;;;;;11.23;7.00;;;12.10;99.90;;;;;;5096621;28;20330;-74
2022/10/24 21:53:53;;;;;;;13.70;7.97;;;12.10;99.90;;;;;;5078898;28;20172;-74
2022/10/24 21:56:23;;;;;;;16.20;8.27;;;12.10;99.90;;;;;;5077860;28;20180;-74
2022/10/24 21:58:53;;;;;;;9.93;7.25;;;12.10;99.90;;;;;;5077857;28;20239;-74
2022/10/24 22:01:25;;;;;;;11.20;7.72;;;12.10;99.90;;;;;;5077782;28;20257;-74
2022/10/24 22:03:55;;;;;;;15.05;8.05;;;12.10;99.90;;;;;;5096405;28;20183;-74
2022/10/24 22:06:21;;;;;;;12.20;6.63;;;12.10;99.90;;;;;;5078020;28;20173;-74
2022/10/24 22:08:48;;;;;;;10.85;6.82;;;12.20;99.90;;;;;;5077690;28;20191;-74
2022/10/24 22:11:16;;;;;;;12.15;6.40;;;12.20;99.90;;;;;;5096054;28;20210;-74
2022/10/24 22:13:42;;;;;;;13.27;6.22;;;12.20;99.90;;;;;;5095965;28;20643;-74
2022/10/24 22:16:10;;;;;;;9.43;4.90;;;12.20;99.90;;;;;;5078473;28;20275;-74
2022/10/24 22:18:36;;;;;;;8.18;4.43;;;12.20;99.90;;;;;;5095471;28;20295;-74
2022/10/24 22:21:03;;;;;;;7.40;4.40;;;12.20;99.90;;;;;;5078338;28;20169;-74
2022/10/24 22:23:29;;;;;;;12.52;5.30;;;12.20;99.90;;;;;;5077483;28;20188;-74
2022/10/24 22:25:57;;;;;;;5.57;4.20;;;12.30;99.90;;;;;;5077644;28;20229;-74
2022/10/24 22:28:23;;;;;;;7.82;3.90;;;12.30;99.90;;;;;;5077528;28;20225;-74